sensor_id;sensor_type;location;lat;lon;timestamp;P1;durP1;ratioP1;P2;durP2;ratioP2
35540;SDS011;21650;48.840;9.162;2022-10-17T00:00:49;12.23;;;5.70;;
35540;SDS011;21650;48.840;9.162;2022-10-17T00:03:15;12.20;;;6.10;;
35540;SDS011;21650;48.840;9.162;2022-10-17T00:05:42;14.77;;;5.90;;
35540;SDS011;21650;48.840;9.162;2022-10-17T00:08:10;9.67;;;6.13;;
35540;SDS011;21650;48.840;9.162;2022-10-17T00:10:37;10.50;;;6.03;;
35540;SDS011;21650;48.840;9.162;2022-10-17T00:13:04;13.23;;;6.37;;
35540;SDS011;21650;48.840;9.162;2022-10-17T00:15:30;17.27;;;6.07;;
35540;SDS011;21650;48.840;9.162;2022-10-17T00:17:56;8.57;;;5.00;;
35540;SDS011;21650;48.840;9.162;2022-10-17T00:20:21;8.80;;;5.23;;
35540;SDS011;21650;48.840;9.162;2022-10-17T00:22:47;8.10;;;5.37;;
35540;SDS011;21650;48.840;9.162;2022-10-17T00:25:12;7.80;;;5.53;;
35540;SDS011;21650;48.840;9.162;2022-10-17T00:27:38;14.93;;;5.67;;
35540;SDS011;21650;48.840;9.162;2022-10-17T00:30:06;14.33;;;5.93;;
35540;SDS011;21650;48.840;9.162;2022-10-17T00:32:34;9.27;;;5.57;;
35540;SDS011;21650;48.840;9.162;2022-10-17T00:35:00;10.37;;;5.67;;
35540;SDS011;21650;48.840;9.162;2022-10-17T00:37:25;8.47;;;5.03;;
35540;SDS011;21650;48.840;9.162;2022-10-17T00:39:51;7.20;;;5.20;;
35540;SDS011;21650;48.840;9.162;2022-10-17T00:42:17;8.90;;;5.20;;
35540;SDS011;21650;48.840;9.162;2022-10-17T00:47:12;8.67;;;4.80;;
35540;SDS011;21650;48.840;9.162;2022-10-17T00:49:41;6.97;;;5.17;;
35540;SDS011;21650;48.840;9.162;2022-10-17T00:52:07;9.87;;;5.23;;
35540;SDS011;21650;48.840;9.162;2022-10-17T00:54:39;8.83;;;4.70;;
35540;SDS011;21650;48.840;9.162;2022-10-17T00:57:08;7.83;;;5.07;;
35540;SDS011;21650;48.840;9.162;2022-10-17T00:59:35;11.73;;;4.50;;
35540;SDS011;21650;48.840;9.162;2022-10-17T01:02:08;9.27;;;4.40;;
35540;SDS011;21650;48.840;9.162;2022-10-17T01:04:39;10.57;;;6.00;;
35540;SDS011;21650;48.840;9.162;2022-10-17T01:07:07;5.67;;;3.93;;
35540;SDS011;21650;48.840;9.162;2022-10-17T01:09:32;5.50;;;4.13;;
35540;SDS011;21650;48.840;9.162;2022-10-17T01:20:47;9.97;;;4.50;;
35540;SDS011;21650;48.840;9.162;2022-10-17T01:26:43;8.10;;;4.30;;
35540;SDS011;21650;48.840;9.162;2022-10-17T01:29:46;8.70;;;4.30;;
35540;SDS011;21650;48.840;9.162;2022-10-17T01:32:44;9.80;;;5.03;;
35540;SDS011;21650;48.840;9.162;2022-10-17T01:40:33;11.47;;;4.93;;
35540;SDS011;21650;48.840;9.162;2022-10-17T01:43:07;12.07;;;4.07;;
35540;SDS011;21650;48.840;9.162;2022-10-17T01:46:24;5.87;;;4.23;;
35540;SDS011;21650;48.840;9.162;2022-10-17T01:48:57;6.93;;;4.53;;
35540;SDS011;21650;48.840;9.162;2022-10-17T01:51:27;6.03;;;4.23;;
35540;SDS011;21650;48.840;9.162;2022-10-17T01:54:00;5.90;;;4.27;;
35540;SDS011;21650;48.840;9.162;2022-10-17T01:56:30;8.97;;;3.20;;
35540;SDS011;21650;48.840;9.162;2022-10-17T01:59:14;12.43;;;4.20;;
35540;SDS011;21650;48.840;9.162;2022-10-17T02:01:46;4.53;;;3.63;;
35540;SDS011;21650;48.840;9.162;2022-10-17T02:04:14;6.73;;;3.70;;
35540;SDS011;21650;48.840;9.162;2022-10-17T02:06:40;7.03;;;3.67;;
35540;SDS011;21650;48.840;9.162;2022-10-17T02:09:25;6.97;;;4.27;;
35540;SDS011;21650;48.840;9.162;2022-10-17T02:11:59;6.23;;;4.13;;
35540;SDS011;21650;48.840;9.162;2022-10-17T02:14:36;4.20;;;3.33;;
35540;SDS011;21650;48.840;9.162;2022-10-17T02:19:46;8.10;;;3.80;;
35540;SDS011;21650;48.840;9.162;2022-10-17T02:30:35;5.43;;;4.37;;
35540;SDS011;21650;48.840;9.162;2022-10-17T02:33:08;5.90;;;3.90;;
35540;SDS011;21650;48.840;9.162;2022-10-17T02:35:44;7.33;;;3.87;;
35540;SDS011;21650;48.840;9.162;2022-10-17T02:38:13;6.13;;;3.47;;
35540;SDS011;21650;48.840;9.162;2022-10-17T02:40:40;5.00;;;4.10;;
35540;SDS011;21650;48.840;9.162;2022-10-17T02:43:07;5.30;;;3.60;;
35540;SDS011;21650;48.840;9.162;2022-10-17T02:45:33;6.00;;;4.17;;
35540;SDS011;21650;48.840;9.162;2022-10-17T02:48:03;4.77;;;3.40;;
35540;SDS011;21650;48.840;9.162;2022-10-17T02:50:48;11.77;;;4.20;;
35540;SDS011;21650;48.840;9.162;2022-10-17T02:53:24;4.50;;;2.97;;
35540;SDS011;21650;48.840;9.162;2022-10-17T02:55:57;6.43;;;3.53;;
35540;SDS011;21650;48.840;9.162;2022-10-17T02:58:27;11.03;;;3.60;;
35540;SDS011;21650;48.840;9.162;2022-10-17T03:00:56;7.27;;;3.50;;
35540;SDS011;21650;48.840;9.162;2022-10-17T03:03:29;6.63;;;3.60;;
35540;SDS011;21650;48.840;9.162;2022-10-17T03:05:56;8.93;;;3.30;;
35540;SDS011;21650;48.840;9.162;2022-10-17T03:08:21;4.27;;;3.17;;
35540;SDS011;21650;48.840;9.162;2022-10-17T03:10:47;8.10;;;4.00;;
35540;SDS011;21650;48.840;9.162;2022-10-17T03:13:13;5.10;;;3.43;;
35540;SDS011;21650;48.840;9.162;2022-10-17T03:15:40;8.07;;;3.20;;
35540;SDS011;21650;48.840;9.162;2022-10-17T03:18:06;8.97;;;3.60;;
35540;SDS011;21650;48.840;9.162;2022-10-17T03:20:32;6.93;;;3.37;;
35540;SDS011;21650;48.840;9.162;2022-10-17T03:22:57;7.03;;;3.13;;
35540;SDS011;21650;48.840;9.162;2022-10-17T03:25:23;5.87;;;3.00;;
35540;SDS011;21650;48.840;9.162;2022-10-17T03:27:49;5.10;;;2.90;;
35540;SDS011;21650;48.840;9.162;2022-10-17T03:30:15;7.27;;;3.90;;
35540;SDS011;21650;48.840;9.162;2022-10-17T03:32:41;5.37;;;3.23;;
35540;SDS011;21650;48.840;9.162;2022-10-17T03:35:07;7.40;;;3.43;;
35540;SDS011;21650;48.840;9.162;2022-10-17T03:37:33;5.63;;;3.50;;
35540;SDS011;21650;48.840;9.162;2022-10-17T03:39:58;5.73;;;3.50;;
35540;SDS011;21650;48.840;9.162;2022-10-17T03:42:24;8.10;;;3.80;;
35540;SDS011;21650;48.840;9.162;2022-10-17T03:44:49;5.17;;;3.67;;
35540;SDS011;21650;48.840;9.162;2022-10-17T03:47:15;8.23;;;3.70;;
35540;SDS011;21650;48.840;9.162;2022-10-17T03:49:40;6.60;;;3.70;;
35540;SDS011;21650;48.840;9.162;2022-10-17T03:52:10;7.27;;;3.93;;
35540;SDS011;21650;48.840;9.162;2022-10-17T03:54:38;9.40;;;3.93;;
35540;SDS011;21650;48.840;9.162;2022-10-17T03:57:04;7.33;;;3.60;;
35540;SDS011;21650;48.840;9.162;2022-10-17T03:59:29;5.97;;;3.63;;
35540;SDS011;21650;48.840;9.162;2022-10-17T04:01:55;6.30;;;3.77;;
35540;SDS011;21650;48.840;9.162;2022-10-17T04:04:21;7.30;;;3.97;;
35540;SDS011;21650;48.840;9.162;2022-10-17T04:06:46;9.80;;;3.87;;
35540;SDS011;21650;48.840;9.162;2022-10-17T04:09:12;10.77;;;3.90;;
35540;SDS011;21650;48.840;9.162;2022-10-17T04:11:37;6.57;;;3.87;;
35540;SDS011;21650;48.840;9.162;2022-10-17T04:14:03;9.20;;;3.80;;
35540;SDS011;21650;48.840;9.162;2022-10-17T04:16:29;5.43;;;3.60;;
35540;SDS011;21650;48.840;9.162;2022-10-17T04:18:55;12.60;;;4.03;;
35540;SDS011;21650;48.840;9.162;2022-10-17T04:21:22;5.10;;;3.10;;
35540;SDS011;21650;48.840;9.162;2022-10-17T04:23:53;6.03;;;3.47;;
35540;SDS011;21650;48.840;9.162;2022-10-17T04:26:22;4.33;;;3.50;;
35540;SDS011;21650;48.840;9.162;2022-10-17T04:28:48;11.33;;;3.80;;
35540;SDS011;21650;48.840;9.162;2022-10-17T04:31:14;8.17;;;3.73;;
35540;SDS011;21650;48.840;9.162;2022-10-17T04:33:40;6.37;;;3.43;;
35540;SDS011;21650;48.840;9.162;2022-10-17T04:36:06;5.63;;;3.93;;
35540;SDS011;21650;48.840;9.162;2022-10-17T04:38:36;4.60;;;3.30;;
35540;SDS011;21650;48.840;9.162;2022-10-17T04:41:03;5.47;;;3.63;;
35540;SDS011;21650;48.840;9.162;2022-10-17T04:43:34;8.33;;;3.90;;
35540;SDS011;21650;48.840;9.162;2022-10-17T04:46:02;10.63;;;4.00;;
35540;SDS011;21650;48.840;9.162;2022-10-17T04:48:29;7.50;;;3.83;;
35540;SDS011;21650;48.840;9.162;2022-10-17T04:50:55;7.93;;;4.57;;
35540;SDS011;21650;48.840;9.162;2022-10-17T04:53:25;7.63;;;4.37;;
35540;SDS011;21650;48.840;9.162;2022-10-17T04:55:51;7.10;;;3.67;;
35540;SDS011;21650;48.840;9.162;2022-10-17T04:58:17;7.13;;;3.27;;
35540;SDS011;21650;48.840;9.162;2022-10-17T05:00:43;10.00;;;3.80;;
35540;SDS011;21650;48.840;9.162;2022-10-17T05:03:09;6.37;;;3.57;;
35540;SDS011;21650;48.840;9.162;2022-10-17T05:05:38;7.07;;;3.63;;
35540;SDS011;21650;48.840;9.162;2022-10-17T05:08:04;4.83;;;3.77;;
35540;SDS011;21650;48.840;9.162;2022-10-17T05:10:37;5.73;;;3.93;;
35540;SDS011;21650;48.840;9.162;2022-10-17T05:13:04;8.03;;;3.87;;
35540;SDS011;21650;48.840;9.162;2022-10-17T05:15:30;9.87;;;3.73;;
35540;SDS011;21650;48.840;9.162;2022-10-17T05:17:56;7.53;;;3.53;;
35540;SDS011;21650;48.840;9.162;2022-10-17T05:20:23;9.50;;;4.00;;
35540;SDS011;21650;48.840;9.162;2022-10-17T05:22:48;12.43;;;3.90;;
35540;SDS011;21650;48.840;9.162;2022-10-17T05:25:14;12.13;;;4.97;;
35540;SDS011;21650;48.840;9.162;2022-10-17T05:27:39;5.77;;;3.87;;
35540;SDS011;21650;48.840;9.162;2022-10-17T05:30:05;8.23;;;4.00;;
35540;SDS011;21650;48.840;9.162;2022-10-17T05:32:31;12.13;;;4.53;;
35540;SDS011;21650;48.840;9.162;2022-10-17T05:34:57;9.47;;;4.83;;
35540;SDS011;21650;48.840;9.162;2022-10-17T05:37:22;9.27;;;4.10;;
35540;SDS011;21650;48.840;9.162;2022-10-17T05:39:48;7.13;;;3.67;;
35540;SDS011;21650;48.840;9.162;2022-10-17T05:42:13;11.43;;;4.27;;
35540;SDS011;21650;48.840;9.162;2022-10-17T05:44:39;9.47;;;3.43;;
35540;SDS011;21650;48.840;9.162;2022-10-17T05:47:05;7.33;;;4.33;;
35540;SDS011;21650;48.840;9.162;2022-10-17T05:49:31;6.93;;;3.93;;
35540;SDS011;21650;48.840;9.162;2022-10-17T05:51:57;6.77;;;4.03;;
35540;SDS011;21650;48.840;9.162;2022-10-17T05:54:23;8.70;;;4.00;;
35540;SDS011;21650;48.840;9.162;2022-10-17T05:56:52;6.87;;;4.13;;
35540;SDS011;21650;48.840;9.162;2022-10-17T05:59:19;6.73;;;4.50;;
35540;SDS011;21650;48.840;9.162;2022-10-17T06:01:45;17.20;;;4.40;;
35540;SDS011;21650;48.840;9.162;2022-10-17T06:04:10;5.97;;;3.90;;
35540;SDS011;21650;48.840;9.162;2022-10-17T06:06:37;8.67;;;4.30;;
35540;SDS011;21650;48.840;9.162;2022-10-17T06:09:03;6.47;;;4.00;;
35540;SDS011;21650;48.840;9.162;2022-10-17T06:11:29;7.10;;;4.67;;
35540;SDS011;21650;48.840;9.162;2022-10-17T06:13:55;8.00;;;4.23;;
35540;SDS011;21650;48.840;9.162;2022-10-17T06:16:21;6.20;;;4.03;;
35540;SDS011;21650;48.840;9.162;2022-10-17T06:18:47;7.23;;;3.57;;
35540;SDS011;21650;48.840;9.162;2022-10-17T06:21:13;9.67;;;3.97;;
35540;SDS011;21650;48.840;9.162;2022-10-17T06:23:41;6.13;;;3.90;;
35540;SDS011;21650;48.840;9.162;2022-10-17T06:26:06;6.77;;;4.00;;
35540;SDS011;21650;48.840;9.162;2022-10-17T06:28:33;7.23;;;5.00;;
35540;SDS011;21650;48.840;9.162;2022-10-17T06:31:02;6.60;;;3.70;;
35540;SDS011;21650;48.840;9.162;2022-10-17T06:33:32;6.87;;;3.90;;
35540;SDS011;21650;48.840;9.162;2022-10-17T06:35:57;5.50;;;3.70;;
35540;SDS011;21650;48.840;9.162;2022-10-17T06:38:23;10.03;;;3.87;;
35540;SDS011;21650;48.840;9.162;2022-10-17T06:40:49;14.87;;;5.40;;
35540;SDS011;21650;48.840;9.162;2022-10-17T06:43:14;6.70;;;4.10;;
35540;SDS011;21650;48.840;9.162;2022-10-17T06:45:40;7.43;;;4.80;;
35540;SDS011;21650;48.840;9.162;2022-10-17T06:48:06;6.67;;;3.90;;
35540;SDS011;21650;48.840;9.162;2022-10-17T06:50:32;6.47;;;3.97;;
35540;SDS011;21650;48.840;9.162;2022-10-17T06:52:58;11.00;;;4.23;;
35540;SDS011;21650;48.840;9.162;2022-10-17T06:55:24;8.60;;;4.33;;
35540;SDS011;21650;48.840;9.162;2022-10-17T06:57:49;7.50;;;3.60;;
35540;SDS011;21650;48.840;9.162;2022-10-17T07:00:18;7.40;;;4.70;;
35540;SDS011;21650;48.840;9.162;2022-10-17T07:02:43;6.03;;;4.40;;
35540;SDS011;21650;48.840;9.162;2022-10-17T07:05:09;7.27;;;3.70;;
35540;SDS011;21650;48.840;9.162;2022-10-17T07:07:34;6.50;;;4.03;;
35540;SDS011;21650;48.840;9.162;2022-10-17T07:10:00;6.30;;;4.27;;
35540;SDS011;21650;48.840;9.162;2022-10-17T07:12:27;9.87;;;4.87;;
35540;SDS011;21650;48.840;9.162;2022-10-17T07:14:53;9.27;;;4.93;;
35540;SDS011;21650;48.840;9.162;2022-10-17T07:17:19;15.73;;;5.43;;
35540;SDS011;21650;48.840;9.162;2022-10-17T07:19:44;12.10;;;4.27;;
35540;SDS011;21650;48.840;9.162;2022-10-17T07:22:10;5.47;;;4.50;;
35540;SDS011;21650;48.840;9.162;2022-10-17T07:24:37;6.83;;;4.70;;
35540;SDS011;21650;48.840;9.162;2022-10-17T07:27:02;5.40;;;4.07;;
35540;SDS011;21650;48.840;9.162;2022-10-17T07:29:28;8.70;;;4.33;;
35540;SDS011;21650;48.840;9.162;2022-10-17T07:31:54;6.77;;;4.17;;
35540;SDS011;21650;48.840;9.162;2022-10-17T07:34:19;9.10;;;4.50;;
35540;SDS011;21650;48.840;9.162;2022-10-17T07:36:45;5.80;;;4.23;;
35540;SDS011;21650;48.840;9.162;2022-10-17T07:39:11;9.07;;;5.50;;
35540;SDS011;21650;48.840;9.162;2022-10-17T07:41:36;9.20;;;5.00;;
35540;SDS011;21650;48.840;9.162;2022-10-17T07:44:02;7.20;;;4.60;;
35540;SDS011;21650;48.840;9.162;2022-10-17T07:46:28;6.57;;;4.40;;
35540;SDS011;21650;48.840;9.162;2022-10-17T07:48:53;13.73;;;4.97;;
35540;SDS011;21650;48.840;9.162;2022-10-17T07:51:19;8.93;;;4.83;;
35540;SDS011;21650;48.840;9.162;2022-10-17T07:53:45;11.80;;;5.53;;
35540;SDS011;21650;48.840;9.162;2022-10-17T07:56:11;5.83;;;4.50;;
35540;SDS011;21650;48.840;9.162;2022-10-17T07:58:37;10.33;;;5.03;;
35540;SDS011;21650;48.840;9.162;2022-10-17T08:01:04;10.00;;;4.83;;
35540;SDS011;21650;48.840;9.162;2022-10-17T08:03:32;6.33;;;4.67;;
35540;SDS011;21650;48.840;9.162;2022-10-17T08:05:58;7.97;;;4.63;;
35540;SDS011;21650;48.840;9.162;2022-10-17T08:08:25;10.13;;;4.33;;
35540;SDS011;21650;48.840;9.162;2022-10-17T08:10:51;7.97;;;4.90;;
35540;SDS011;21650;48.840;9.162;2022-10-17T08:13:19;6.37;;;4.30;;
35540;SDS011;21650;48.840;9.162;2022-10-17T08:15:45;13.37;;;4.17;;
35540;SDS011;21650;48.840;9.162;2022-10-17T08:18:12;8.37;;;4.27;;
35540;SDS011;21650;48.840;9.162;2022-10-17T08:20:38;9.07;;;4.10;;
35540;SDS011;21650;48.840;9.162;2022-10-17T08:23:05;13.03;;;4.27;;
35540;SDS011;21650;48.840;9.162;2022-10-17T08:25:30;6.97;;;3.77;;
35540;SDS011;21650;48.840;9.162;2022-10-17T08:27:56;6.40;;;3.70;;
35540;SDS011;21650;48.840;9.162;2022-10-17T08:30:22;5.93;;;4.13;;
35540;SDS011;21650;48.840;9.162;2022-10-17T08:32:48;12.27;;;4.80;;
35540;SDS011;21650;48.840;9.162;2022-10-17T08:35:14;8.07;;;3.63;;
35540;SDS011;21650;48.840;9.162;2022-10-17T08:37:40;9.70;;;4.37;;
35540;SDS011;21650;48.840;9.162;2022-10-17T08:40:06;5.87;;;3.30;;
35540;SDS011;21650;48.840;9.162;2022-10-17T08:45:28;7.50;;;3.53;;
35540;SDS011;21650;48.840;9.162;2022-10-17T08:48:16;9.07;;;3.90;;
35540;SDS011;21650;48.840;9.162;2022-10-17T08:50:46;8.47;;;3.13;;
35540;SDS011;21650;48.840;9.162;2022-10-17T08:53:37;7.43;;;3.37;;
35540;SDS011;21650;48.840;9.162;2022-10-17T08:56:20;6.27;;;3.30;;
35540;SDS011;21650;48.840;9.162;2022-10-17T08:58:53;6.03;;;3.10;;
35540;SDS011;21650;48.840;9.162;2022-10-17T09:06:53;7.57;;;3.33;;
35540;SDS011;21650;48.840;9.162;2022-10-17T09:12:06;8.47;;;4.13;;
35540;SDS011;21650;48.840;9.162;2022-10-17T09:17:20;9.10;;;3.57;;
35540;SDS011;21650;48.840;9.162;2022-10-17T09:22:56;7.77;;;4.43;;
35540;SDS011;21650;48.840;9.162;2022-10-17T09:25:26;7.53;;;2.87;;
35540;SDS011;21650;48.840;9.162;2022-10-17T09:33:39;9.50;;;3.40;;
35540;SDS011;21650;48.840;9.162;2022-10-17T09:36:16;5.37;;;2.63;;
35540;SDS011;21650;48.840;9.162;2022-10-17T09:38:49;6.83;;;2.80;;
35540;SDS011;21650;48.840;9.162;2022-10-17T09:41:20;9.27;;;4.90;;
35540;SDS011;21650;48.840;9.162;2022-10-17T09:44:15;9.10;;;3.90;;
35540;SDS011;21650;48.840;9.162;2022-10-17T09:47:33;7.40;;;2.90;;
35540;SDS011;21650;48.840;9.162;2022-10-17T09:49:35;8.97;;;2.93;;
35540;SDS011;21650;48.840;9.162;2022-10-17T09:52:03;7.63;;;3.03;;
35540;SDS011;21650;48.840;9.162;2022-10-17T09:57:08;6.10;;;3.37;;
35540;SDS011;21650;48.840;9.162;2022-10-17T10:02:15;9.67;;;3.63;;
35540;SDS011;21650;48.840;9.162;2022-10-17T10:05:00;7.63;;;2.90;;
35540;SDS011;21650;48.840;9.162;2022-10-17T10:07:29;6.97;;;3.03;;
35540;SDS011;21650;48.840;9.162;2022-10-17T10:09:56;6.47;;;3.50;;
35540;SDS011;21650;48.840;9.162;2022-10-17T10:12:28;6.40;;;3.30;;
35540;SDS011;21650;48.840;9.162;2022-10-17T10:14:56;5.87;;;3.23;;
35540;SDS011;21650;48.840;9.162;2022-10-17T10:17:38;6.83;;;2.47;;
35540;SDS011;21650;48.840;9.162;2022-10-17T10:25:32;7.83;;;3.40;;
35540;SDS011;21650;48.840;9.162;2022-10-17T10:27:59;8.00;;;3.60;;
35540;SDS011;21650;48.840;9.162;2022-10-17T10:30:27;6.13;;;3.27;;
35540;SDS011;21650;48.840;9.162;2022-10-17T10:32:54;5.13;;;2.73;;
35540;SDS011;21650;48.840;9.162;2022-10-17T10:35:30;6.10;;;3.67;;
35540;SDS011;21650;48.840;9.162;2022-10-17T10:38:00;7.70;;;3.47;;
35540;SDS011;21650;48.840;9.162;2022-10-17T10:46:17;11.00;;;3.83;;
35540;SDS011;21650;48.840;9.162;2022-10-17T10:48:51;6.17;;;2.90;;
35540;SDS011;21650;48.840;9.162;2022-10-17T10:51:21;4.37;;;2.63;;
35540;SDS011;21650;48.840;9.162;2022-10-17T10:53:57;8.10;;;2.30;;
35540;SDS011;21650;48.840;9.162;2022-10-17T10:56:36;6.37;;;2.13;;
35540;SDS011;21650;48.840;9.162;2022-10-17T11:01:34;4.00;;;2.20;;
35540;SDS011;21650;48.840;9.162;2022-10-17T11:04:28;5.17;;;2.30;;
35540;SDS011;21650;48.840;9.162;2022-10-17T11:07:21;7.33;;;2.60;;
35540;SDS011;21650;48.840;9.162;2022-10-17T11:18:09;5.63;;;2.30;;
35540;SDS011;21650;48.840;9.162;2022-10-17T11:23:46;5.00;;;2.07;;
35540;SDS011;21650;48.840;9.162;2022-10-17T11:26:18;5.37;;;2.73;;
35540;SDS011;21650;48.840;9.162;2022-10-17T11:28:54;6.27;;;2.03;;
35540;SDS011;21650;48.840;9.162;2022-10-17T11:31:24;5.73;;;2.10;;
35540;SDS011;21650;48.840;9.162;2022-10-17T11:34:06;5.40;;;2.00;;
35540;SDS011;21650;48.840;9.162;2022-10-17T11:36:43;8.73;;;2.47;;
35540;SDS011;21650;48.840;9.162;2022-10-17T11:39:18;5.90;;;2.37;;
35540;SDS011;21650;48.840;9.162;2022-10-17T11:41:51;4.87;;;2.57;;
35540;SDS011;21650;48.840;9.162;2022-10-17T11:47:12;6.27;;;2.03;;
35540;SDS011;21650;48.840;9.162;2022-10-17T11:49:44;5.37;;;2.20;;
35540;SDS011;21650;48.840;9.162;2022-10-17T11:52:34;4.23;;;2.00;;
35540;SDS011;21650;48.840;9.162;2022-10-17T11:55:21;3.60;;;1.50;;
35540;SDS011;21650;48.840;9.162;2022-10-17T12:00:51;1.93;;;1.17;;
35540;SDS011;21650;48.840;9.162;2022-10-17T12:16:57;6.43;;;1.70;;
35540;SDS011;21650;48.840;9.162;2022-10-17T12:19:25;3.80;;;1.60;;
35540;SDS011;21650;48.840;9.162;2022-10-17T12:24:51;6.07;;;1.77;;
35540;SDS011;21650;48.840;9.162;2022-10-17T12:32:36;4.93;;;1.40;;
35540;SDS011;21650;48.840;9.162;2022-10-17T12:35:20;7.83;;;1.93;;
35540;SDS011;21650;48.840;9.162;2022-10-17T12:43:31;7.40;;;2.27;;
35540;SDS011;21650;48.840;9.162;2022-10-17T12:46:01;5.43;;;1.70;;
35540;SDS011;21650;48.840;9.162;2022-10-17T12:51:06;9.53;;;2.23;;
35540;SDS011;21650;48.840;9.162;2022-10-17T12:53:40;5.43;;;2.63;;
35540;SDS011;21650;48.840;9.162;2022-10-17T12:56:17;5.37;;;2.00;;
35540;SDS011;21650;48.840;9.162;2022-10-17T12:58:45;4.03;;;1.50;;
35540;SDS011;21650;48.840;9.162;2022-10-17T13:01:29;5.03;;;1.70;;
35540;SDS011;21650;48.840;9.162;2022-10-17T13:03:57;5.53;;;1.70;;
35540;SDS011;21650;48.840;9.162;2022-10-17T13:06:27;5.07;;;1.70;;
35540;SDS011;21650;48.840;9.162;2022-10-17T13:08:59;5.53;;;2.13;;
35540;SDS011;21650;48.840;9.162;2022-10-17T13:11:29;3.10;;;1.80;;
35540;SDS011;21650;48.840;9.162;2022-10-17T13:13:58;3.03;;;2.07;;
35540;SDS011;21650;48.840;9.162;2022-10-17T13:18:59;10.23;;;2.30;;
35540;SDS011;21650;48.840;9.162;2022-10-17T13:21:28;6.33;;;1.70;;
35540;SDS011;21650;48.840;9.162;2022-10-17T13:23:54;4.37;;;2.00;;
35540;SDS011;21650;48.840;9.162;2022-10-17T13:26:24;2.20;;;2.00;;
35540;SDS011;21650;48.840;9.162;2022-10-17T13:31:34;7.37;;;2.20;;
35540;SDS011;21650;48.840;9.162;2022-10-17T13:34:03;4.20;;;1.93;;
35540;SDS011;21650;48.840;9.162;2022-10-17T13:36:30;3.27;;;1.40;;
35540;SDS011;21650;48.840;9.162;2022-10-17T13:38:58;7.87;;;1.73;;
35540;SDS011;21650;48.840;9.162;2022-10-17T13:41:30;3.37;;;1.63;;
35540;SDS011;21650;48.840;9.162;2022-10-17T13:43:59;5.23;;;1.90;;
35540;SDS011;21650;48.840;9.162;2022-10-17T13:46:28;2.80;;;2.00;;
35540;SDS011;21650;48.840;9.162;2022-10-17T13:48:59;2.40;;;1.90;;
35540;SDS011;21650;48.840;9.162;2022-10-17T13:51:35;4.13;;;1.37;;
35540;SDS011;21650;48.840;9.162;2022-10-17T13:54:01;5.13;;;2.00;;
35540;SDS011;21650;48.840;9.162;2022-10-17T13:57:01;4.23;;;1.83;;
35540;SDS011;21650;48.840;9.162;2022-10-17T13:59:39;3.63;;;1.50;;
35540;SDS011;21650;48.840;9.162;2022-10-17T14:02:10;5.97;;;1.50;;
35540;SDS011;21650;48.840;9.162;2022-10-17T14:04:40;2.17;;;1.50;;
35540;SDS011;21650;48.840;9.162;2022-10-17T14:07:12;6.23;;;1.60;;
35540;SDS011;21650;48.840;9.162;2022-10-17T14:09:50;4.83;;;1.80;;
35540;SDS011;21650;48.840;9.162;2022-10-17T14:12:16;7.27;;;2.10;;
35540;SDS011;21650;48.840;9.162;2022-10-17T14:14:48;6.73;;;1.97;;
35540;SDS011;21650;48.840;9.162;2022-10-17T14:17:26;6.23;;;1.90;;
35540;SDS011;21650;48.840;9.162;2022-10-17T14:19:54;5.77;;;1.80;;
35540;SDS011;21650;48.840;9.162;2022-10-17T14:24:50;4.03;;;1.67;;
35540;SDS011;21650;48.840;9.162;2022-10-17T14:27:33;4.87;;;1.93;;
35540;SDS011;21650;48.840;9.162;2022-10-17T14:30:06;2.53;;;1.60;;
35540;SDS011;21650;48.840;9.162;2022-10-17T14:32:53;5.33;;;2.20;;
35540;SDS011;21650;48.840;9.162;2022-10-17T14:35:21;2.37;;;1.40;;
35540;SDS011;21650;48.840;9.162;2022-10-17T14:37:48;4.80;;;1.73;;
35540;SDS011;21650;48.840;9.162;2022-10-17T14:40:17;4.20;;;1.90;;
35540;SDS011;21650;48.840;9.162;2022-10-17T14:42:50;4.60;;;2.10;;
35540;SDS011;21650;48.840;9.162;2022-10-17T14:45:34;2.93;;;1.43;;
35540;SDS011;21650;48.840;9.162;2022-10-17T14:48:03;3.60;;;1.57;;
35540;SDS011;21650;48.840;9.162;2022-10-17T14:50:36;4.60;;;1.90;;
35540;SDS011;21650;48.840;9.162;2022-10-17T14:55:53;3.67;;;1.83;;
35540;SDS011;21650;48.840;9.162;2022-10-17T14:58:24;5.67;;;1.63;;
35540;SDS011;21650;48.840;9.162;2022-10-17T15:00:54;3.30;;;1.70;;
35540;SDS011;21650;48.840;9.162;2022-10-17T15:03:21;2.80;;;1.87;;
35540;SDS011;21650;48.840;9.162;2022-10-17T15:05:48;5.50;;;2.00;;
35540;SDS011;21650;48.840;9.162;2022-10-17T15:08:15;4.37;;;1.93;;
35540;SDS011;21650;48.840;9.162;2022-10-17T15:10:42;3.00;;;2.27;;
35540;SDS011;21650;48.840;9.162;2022-10-17T15:13:09;4.10;;;1.80;;
35540;SDS011;21650;48.840;9.162;2022-10-17T15:15:36;7.70;;;2.63;;
35540;SDS011;21650;48.840;9.162;2022-10-17T15:18:02;7.93;;;2.43;;
35540;SDS011;21650;48.840;9.162;2022-10-17T15:20:29;3.60;;;1.90;;
35540;SDS011;21650;48.840;9.162;2022-10-17T15:22:56;6.03;;;1.90;;
35540;SDS011;21650;48.840;9.162;2022-10-17T15:25:23;6.27;;;2.20;;
35540;SDS011;21650;48.840;9.162;2022-10-17T15:27:50;3.40;;;1.80;;
35540;SDS011;21650;48.840;9.162;2022-10-17T15:30:20;3.43;;;1.80;;
35540;SDS011;21650;48.840;9.162;2022-10-17T15:32:54;4.23;;;1.93;;
35540;SDS011;21650;48.840;9.162;2022-10-17T15:35:20;6.33;;;2.10;;
35540;SDS011;21650;48.840;9.162;2022-10-17T15:37:46;1.87;;;1.67;;
35540;SDS011;21650;48.840;9.162;2022-10-17T15:40:14;4.20;;;2.13;;
35540;SDS011;21650;48.840;9.162;2022-10-17T15:42:41;3.67;;;1.50;;
35540;SDS011;21650;48.840;9.162;2022-10-17T15:45:07;8.23;;;2.20;;
35540;SDS011;21650;48.840;9.162;2022-10-17T15:47:39;6.73;;;2.17;;
35540;SDS011;21650;48.840;9.162;2022-10-17T15:50:05;3.83;;;1.70;;
35540;SDS011;21650;48.840;9.162;2022-10-17T15:52:32;11.37;;;2.77;;
35540;SDS011;21650;48.840;9.162;2022-10-17T15:54:58;6.47;;;2.10;;
35540;SDS011;21650;48.840;9.162;2022-10-17T15:57:25;10.47;;;2.20;;
35540;SDS011;21650;48.840;9.162;2022-10-17T15:59:53;25.40;;;5.53;;
35540;SDS011;21650;48.840;9.162;2022-10-17T16:02:20;28.77;;;5.23;;
35540;SDS011;21650;48.840;9.162;2022-10-17T16:04:47;132.30;;;15.50;;
35540;SDS011;21650;48.840;9.162;2022-10-17T16:07:14;39.70;;;5.33;;
35540;SDS011;21650;48.840;9.162;2022-10-17T16:09:40;3.80;;;2.13;;
35540;SDS011;21650;48.840;9.162;2022-10-17T16:12:09;4.97;;;2.83;;
35540;SDS011;21650;48.840;9.162;2022-10-17T16:14:38;8.17;;;2.73;;
35540;SDS011;21650;48.840;9.162;2022-10-17T16:17:04;8.50;;;3.23;;
35540;SDS011;21650;48.840;9.162;2022-10-17T16:19:29;5.87;;;2.50;;
35540;SDS011;21650;48.840;9.162;2022-10-17T16:21:55;4.90;;;2.53;;
35540;SDS011;21650;48.840;9.162;2022-10-17T16:24:22;4.77;;;2.60;;
35540;SDS011;21650;48.840;9.162;2022-10-17T16:26:49;11.37;;;2.90;;
35540;SDS011;21650;48.840;9.162;2022-10-17T16:29:14;6.47;;;2.27;;
35540;SDS011;21650;48.840;9.162;2022-10-17T16:31:41;5.63;;;2.47;;
35540;SDS011;21650;48.840;9.162;2022-10-17T16:34:09;2.57;;;1.97;;
35540;SDS011;21650;48.840;9.162;2022-10-17T16:36:37;4.70;;;2.30;;
35540;SDS011;21650;48.840;9.162;2022-10-17T16:39:03;3.30;;;2.30;;
35540;SDS011;21650;48.840;9.162;2022-10-17T16:41:30;4.10;;;2.50;;
35540;SDS011;21650;48.840;9.162;2022-10-17T16:43:59;3.93;;;2.73;;
35540;SDS011;21650;48.840;9.162;2022-10-17T16:46:26;7.67;;;3.10;;
35540;SDS011;21650;48.840;9.162;2022-10-17T16:48:54;5.00;;;3.00;;
35540;SDS011;21650;48.840;9.162;2022-10-17T16:51:20;3.70;;;2.90;;
35540;SDS011;21650;48.840;9.162;2022-10-17T16:53:47;5.13;;;2.60;;
35540;SDS011;21650;48.840;9.162;2022-10-17T16:56:15;5.03;;;3.00;;
35540;SDS011;21650;48.840;9.162;2022-10-17T16:58:43;6.47;;;3.53;;
35540;SDS011;21650;48.840;9.162;2022-10-17T17:01:10;6.97;;;3.00;;
35540;SDS011;21650;48.840;9.162;2022-10-17T17:03:39;9.00;;;3.53;;
35540;SDS011;21650;48.840;9.162;2022-10-17T17:06:06;5.00;;;3.03;;
35540;SDS011;21650;48.840;9.162;2022-10-17T17:08:33;7.17;;;2.80;;